sensor_id;sensor_type;location;lat;lon;timestamp;P1;durP1;ratioP1;P2;durP2;ratioP2
26622;SDS011;14254;50.968;5.366;2022-08-03T00:00:03;4.97;;;2.53;;
26622;SDS011;14254;50.968;5.366;2022-08-03T00:02:29;5.95;;;2.60;;
26622;SDS011;14254;50.968;5.366;2022-08-03T00:04:55;4.05;;;2.80;;
26622;SDS011;14254;50.968;5.366;2022-08-03T00:07:21;6.03;;;3.05;;
26622;SDS011;14254;50.968;5.366;2022-08-03T00:09:46;5.57;;;2.63;;
26622;SDS011;14254;50.968;5.366;2022-08-03T00:12:12;5.07;;;2.70;;
26622;SDS011;14254;50.968;5.366;2022-08-03T00:14:38;4.95;;;2.10;;
26622;SDS011;14254;50.968;5.366;2022-08-03T00:17:03;3.13;;;2.50;;
26622;SDS011;14254;50.968;5.366;2022-08-03T00:19:29;4.40;;;2.42;;
26622;SDS011;14254;50.968;5.366;2022-08-03T00:21:55;4.82;;;2.60;;
26622;SDS011;14254;50.968;5.366;2022-08-03T00:24:20;5.32;;;2.58;;
26622;SDS011;14254;50.968;5.366;2022-08-03T00:26:46;4.43;;;2.90;;
26622;SDS011;14254;50.968;5.366;2022-08-03T00:29:12;3.80;;;2.28;;
26622;SDS011;14254;50.968;5.366;2022-08-03T00:31:37;6.80;;;2.78;;
26622;SDS011;14254;50.968;5.366;2022-08-03T00:34:03;8.82;;;2.92;;
26622;SDS011;14254;50.968;5.366;2022-08-03T00:36:29;7.80;;;2.97;;
26622;SDS011;14254;50.968;5.366;2022-08-03T00:38:55;6.95;;;2.75;;
26622;SDS011;14254;50.968;5.366;2022-08-03T00:41:20;4.43;;;2.78;;
26622;SDS011;14254;50.968;5.366;2022-08-03T00:43:46;8.88;;;2.33;;
26622;SDS011;14254;50.968;5.366;2022-08-03T00:46:12;6.75;;;2.72;;
26622;SDS011;14254;50.968;5.366;2022-08-03T00:48:38;7.10;;;2.90;;
26622;SDS011;14254;50.968;5.366;2022-08-03T00:51:04;4.90;;;2.33;;
26622;SDS011;14254;50.968;5.366;2022-08-03T00:53:30;6.72;;;2.63;;
26622;SDS011;14254;50.968;5.366;2022-08-03T00:55:58;5.20;;;2.85;;
26622;SDS011;14254;50.968;5.366;2022-08-03T00:58:24;11.27;;;2.85;;
26622;SDS011;14254;50.968;5.366;2022-08-03T01:00:50;5.80;;;3.00;;
26622;SDS011;14254;50.968;5.366;2022-08-03T01:03:15;7.93;;;2.97;;
26622;SDS011;14254;50.968;5.366;2022-08-03T01:11:18;3.67;;;2.95;;
26622;SDS011;14254;50.968;5.366;2022-08-03T01:16:40;5.60;;;3.00;;
26622;SDS011;14254;50.968;5.366;2022-08-03T01:19:23;5.05;;;2.70;;
26622;SDS011;14254;50.968;5.366;2022-08-03T01:25:05;6.13;;;3.33;;
26622;SDS011;14254;50.968;5.366;2022-08-03T01:28:01;4.63;;;2.72;;
26622;SDS011;14254;50.968;5.366;2022-08-03T01:30:48;4.35;;;2.63;;
26622;SDS011;14254;50.968;5.366;2022-08-03T01:33:21;7.03;;;2.58;;
26622;SDS011;14254;50.968;5.366;2022-08-03T01:35:54;4.60;;;2.70;;
26622;SDS011;14254;50.968;5.366;2022-08-03T01:38:42;4.53;;;3.15;;
26622;SDS011;14254;50.968;5.366;2022-08-03T01:41:23;8.40;;;3.35;;
26622;SDS011;14254;50.968;5.366;2022-08-03T01:43:50;4.88;;;3.40;;
26622;SDS011;14254;50.968;5.366;2022-08-03T01:46:18;8.38;;;3.33;;
26622;SDS011;14254;50.968;5.366;2022-08-03T01:48:45;6.05;;;3.58;;
26622;SDS011;14254;50.968;5.366;2022-08-03T01:51:12;8.27;;;3.53;;
26622;SDS011;14254;50.968;5.366;2022-08-03T01:53:42;7.93;;;3.10;;
26622;SDS011;14254;50.968;5.366;2022-08-03T01:56:09;5.57;;;3.03;;
26622;SDS011;14254;50.968;5.366;2022-08-03T01:58:36;6.63;;;2.85;;
26622;SDS011;14254;50.968;5.366;2022-08-03T02:01:04;5.07;;;3.17;;
26622;SDS011;14254;50.968;5.366;2022-08-03T02:03:33;6.65;;;2.90;;
26622;SDS011;14254;50.968;5.366;2022-08-03T02:06:03;8.30;;;3.10;;
26622;SDS011;14254;50.968;5.366;2022-08-03T02:08:29;9.65;;;3.45;;
26622;SDS011;14254;50.968;5.366;2022-08-03T02:10:56;6.80;;;3.25;;
26622;SDS011;14254;50.968;5.366;2022-08-03T02:13:23;4.95;;;2.83;;
26622;SDS011;14254;50.968;5.366;2022-08-03T02:15:50;3.55;;;2.92;;
26622;SDS011;14254;50.968;5.366;2022-08-03T02:18:17;6.18;;;2.90;;
26622;SDS011;14254;50.968;5.366;2022-08-03T02:20:45;3.92;;;3.13;;
26622;SDS011;14254;50.968;5.366;2022-08-03T02:23:15;5.53;;;3.03;;
26622;SDS011;14254;50.968;5.366;2022-08-03T02:25:43;3.92;;;2.95;;
26622;SDS011;14254;50.968;5.366;2022-08-03T02:28:21;4.07;;;2.70;;
26622;SDS011;14254;50.968;5.366;2022-08-03T02:30:54;3.13;;;2.83;;
26622;SDS011;14254;50.968;5.366;2022-08-03T02:33:26;4.70;;;3.08;;
26622;SDS011;14254;50.968;5.366;2022-08-03T02:35:56;5.55;;;3.03;;
26622;SDS011;14254;50.968;5.366;2022-08-03T02:38:25;4.93;;;2.92;;
26622;SDS011;14254;50.968;5.366;2022-08-03T02:40:57;3.05;;;2.75;;
26622;SDS011;14254;50.968;5.366;2022-08-03T02:43:23;3.53;;;2.42;;
26622;SDS011;14254;50.968;5.366;2022-08-03T02:45:50;7.50;;;3.85;;
26622;SDS011;14254;50.968;5.366;2022-08-03T02:48:26;4.43;;;2.92;;
26622;SDS011;14254;50.968;5.366;2022-08-03T02:50:53;3.58;;;2.72;;
26622;SDS011;14254;50.968;5.366;2022-08-03T02:53:22;4.07;;;3.17;;
26622;SDS011;14254;50.968;5.366;2022-08-03T02:55:50;8.25;;;3.08;;
26622;SDS011;14254;50.968;5.366;2022-08-03T02:58:17;7.35;;;2.95;;
26622;SDS011;14254;50.968;5.366;2022-08-03T03:00:47;4.53;;;2.75;;
26622;SDS011;14254;50.968;5.366;2022-08-03T03:03:15;5.10;;;3.00;;
26622;SDS011;14254;50.968;5.366;2022-08-03T03:05:41;4.75;;;3.00;;
26622;SDS011;14254;50.968;5.366;2022-08-03T03:08:08;3.85;;;2.90;;
26622;SDS011;14254;50.968;5.366;2022-08-03T03:10:40;5.38;;;3.00;;
26622;SDS011;14254;50.968;5.366;2022-08-03T03:13:07;6.53;;;3.53;;
26622;SDS011;14254;50.968;5.366;2022-08-03T03:15:34;4.40;;;2.95;;
26622;SDS011;14254;50.968;5.366;2022-08-03T03:18:01;6.32;;;3.00;;
26622;SDS011;14254;50.968;5.366;2022-08-03T03:20:27;4.90;;;2.95;;
26622;SDS011;14254;50.968;5.366;2022-08-03T03:22:54;5.88;;;3.40;;
26622;SDS011;14254;50.968;5.366;2022-08-03T03:25:22;4.85;;;3.42;;
26622;SDS011;14254;50.968;5.366;2022-08-03T03:27:48;5.63;;;3.30;;
26622;SDS011;14254;50.968;5.366;2022-08-03T03:30:14;4.05;;;3.15;;
26622;SDS011;14254;50.968;5.366;2022-08-03T03:32:40;6.18;;;3.58;;
26622;SDS011;14254;50.968;5.366;2022-08-03T03:35:06;4.30;;;3.20;;
26622;SDS011;14254;50.968;5.366;2022-08-03T03:37:33;7.93;;;3.08;;
26622;SDS011;14254;50.968;5.366;2022-08-03T03:39:59;5.63;;;3.10;;
26622;SDS011;14254;50.968;5.366;2022-08-03T03:42:25;7.47;;;3.50;;
26622;SDS011;14254;50.968;5.366;2022-08-03T03:44:51;7.97;;;4.07;;
26622;SDS011;14254;50.968;5.366;2022-08-03T03:47:16;4.18;;;3.58;;
26622;SDS011;14254;50.968;5.366;2022-08-03T03:49:42;6.10;;;3.70;;
26622;SDS011;14254;50.968;5.366;2022-08-03T03:52:09;5.57;;;3.58;;
26622;SDS011;14254;50.968;5.366;2022-08-03T03:54:41;9.32;;;3.90;;
26622;SDS011;14254;50.968;5.366;2022-08-03T03:57:08;8.23;;;3.53;;
26622;SDS011;14254;50.968;5.366;2022-08-03T03:59:38;4.65;;;2.90;;
26622;SDS011;14254;50.968;5.366;2022-08-03T04:02:05;2.75;;;2.55;;
26622;SDS011;14254;50.968;5.366;2022-08-03T04:04:32;6.13;;;2.95;;
26622;SDS011;14254;50.968;5.366;2022-08-03T04:07:17;4.07;;;2.70;;
26622;SDS011;14254;50.968;5.366;2022-08-03T04:10:02;5.57;;;2.42;;
26622;SDS011;14254;50.968;5.366;2022-08-03T04:12:50;5.20;;;2.80;;
26622;SDS011;14254;50.968;5.366;2022-08-03T04:15:18;10.90;;;3.08;;
26622;SDS011;14254;50.968;5.366;2022-08-03T04:17:46;6.75;;;3.63;;
26622;SDS011;14254;50.968;5.366;2022-08-03T04:20:15;4.45;;;3.55;;
26622;SDS011;14254;50.968;5.366;2022-08-03T04:22:44;6.72;;;3.90;;
26622;SDS011;14254;50.968;5.366;2022-08-03T04:25:13;6.78;;;3.50;;
26622;SDS011;14254;50.968;5.366;2022-08-03T04:27:43;6.97;;;3.60;;
26622;SDS011;14254;50.968;5.366;2022-08-03T04:30:10;3.97;;;3.55;;
26622;SDS011;14254;50.968;5.366;2022-08-03T04:32:36;6.93;;;3.50;;
26622;SDS011;14254;50.968;5.366;2022-08-03T04:35:03;4.57;;;2.88;;
26622;SDS011;14254;50.968;5.366;2022-08-03T04:37:33;8.25;;;3.53;;
26622;SDS011;14254;50.968;5.366;2022-08-03T04:40:05;5.30;;;3.05;;
26622;SDS011;14254;50.968;5.366;2022-08-03T04:42:33;5.22;;;3.72;;
26622;SDS011;14254;50.968;5.366;2022-08-03T04:45:00;7.60;;;2.95;;
26622;SDS011;14254;50.968;5.366;2022-08-03T04:47:28;9.85;;;3.97;;
26622;SDS011;14254;50.968;5.366;2022-08-03T04:49:56;7.00;;;3.55;;
26622;SDS011;14254;50.968;5.366;2022-08-03T04:52:22;3.95;;;3.25;;
26622;SDS011;14254;50.968;5.366;2022-08-03T04:54:48;8.55;;;3.90;;
26622;SDS011;14254;50.968;5.366;2022-08-03T04:57:15;6.90;;;3.33;;
26622;SDS011;14254;50.968;5.366;2022-08-03T04:59:40;5.40;;;3.40;;
26622;SDS011;14254;50.968;5.366;2022-08-03T05:02:06;4.30;;;3.15;;
26622;SDS011;14254;50.968;5.366;2022-08-03T05:04:32;3.88;;;3.47;;
26622;SDS011;14254;50.968;5.366;2022-08-03T05:06:57;7.20;;;3.83;;
26622;SDS011;14254;50.968;5.366;2022-08-03T05:09:23;5.70;;;3.67;;
26622;SDS011;14254;50.968;5.366;2022-08-03T05:11:48;5.43;;;3.45;;
26622;SDS011;14254;50.968;5.366;2022-08-03T05:14:14;6.22;;;3.67;;
26622;SDS011;14254;50.968;5.366;2022-08-03T05:16:40;9.00;;;3.53;;
26622;SDS011;14254;50.968;5.366;2022-08-03T05:19:05;6.72;;;3.78;;
26622;SDS011;14254;50.968;5.366;2022-08-03T05:21:31;6.57;;;3.15;;
26622;SDS011;14254;50.968;5.366;2022-08-03T05:23:56;5.30;;;3.20;;
26622;SDS011;14254;50.968;5.366;2022-08-03T05:26:22;6.18;;;3.40;;
26622;SDS011;14254;50.968;5.366;2022-08-03T05:28:48;5.50;;;3.55;;
26622;SDS011;14254;50.968;5.366;2022-08-03T05:31:13;7.50;;;3.75;;
26622;SDS011;14254;50.968;5.366;2022-08-03T05:33:39;5.32;;;3.15;;
26622;SDS011;14254;50.968;5.366;2022-08-03T05:36:05;4.97;;;3.28;;
26622;SDS011;14254;50.968;5.366;2022-08-03T05:38:31;6.72;;;3.78;;
26622;SDS011;14254;50.968;5.366;2022-08-03T05:40:57;9.70;;;3.22;;
26622;SDS011;14254;50.968;5.366;2022-08-03T05:43:23;9.45;;;3.25;;
26622;SDS011;14254;50.968;5.366;2022-08-03T05:45:48;8.80;;;3.10;;
26622;SDS011;14254;50.968;5.366;2022-08-03T05:48:14;6.82;;;3.05;;
26622;SDS011;14254;50.968;5.366;2022-08-03T05:50:40;8.02;;;3.38;;
26622;SDS011;14254;50.968;5.366;2022-08-03T05:53:05;7.05;;;3.28;;
26622;SDS011;14254;50.968;5.366;2022-08-03T05:55:31;7.63;;;3.30;;
26622;SDS011;14254;50.968;5.366;2022-08-03T05:57:57;8.32;;;2.95;;
26622;SDS011;14254;50.968;5.366;2022-08-03T06:00:23;7.95;;;3.20;;
26622;SDS011;14254;50.968;5.366;2022-08-03T06:02:49;9.30;;;3.45;;
26622;SDS011;14254;50.968;5.366;2022-08-03T06:05:14;5.50;;;3.25;;
26622;SDS011;14254;50.968;5.366;2022-08-03T06:07:40;11.60;;;3.60;;
26622;SDS011;14254;50.968;5.366;2022-08-03T06:10:06;8.05;;;3.28;;
26622;SDS011;14254;50.968;5.366;2022-08-03T06:12:32;7.70;;;3.05;;
26622;SDS011;14254;50.968;5.366;2022-08-03T06:15:00;11.45;;;2.92;;
26622;SDS011;14254;50.968;5.366;2022-08-03T06:17:27;9.43;;;3.30;;
26622;SDS011;14254;50.968;5.366;2022-08-03T06:19:52;8.05;;;2.33;;
26622;SDS011;14254;50.968;5.366;2022-08-03T06:22:18;5.93;;;2.13;;
26622;SDS011;14254;50.968;5.366;2022-08-03T06:24:44;8.60;;;2.80;;
26622;SDS011;14254;50.968;5.366;2022-08-03T06:27:10;11.52;;;2.65;;
26622;SDS011;14254;50.968;5.366;2022-08-03T06:29:36;6.32;;;2.90;;
26622;SDS011;14254;50.968;5.366;2022-08-03T06:32:02;9.35;;;2.35;;
26622;SDS011;14254;50.968;5.366;2022-08-03T06:34:28;8.30;;;2.47;;
26622;SDS011;14254;50.968;5.366;2022-08-03T06:36:53;6.85;;;2.40;;
26622;SDS011;14254;50.968;5.366;2022-08-03T06:39:20;8.82;;;2.10;;
26622;SDS011;14254;50.968;5.366;2022-08-03T06:41:46;5.35;;;2.28;;
26622;SDS011;14254;50.968;5.366;2022-08-03T06:44:11;8.48;;;2.08;;
26622;SDS011;14254;50.968;5.366;2022-08-03T06:46:37;8.05;;;2.17;;
26622;SDS011;14254;50.968;5.366;2022-08-03T06:49:03;5.63;;;2.33;;
26622;SDS011;14254;50.968;5.366;2022-08-03T06:51:29;8.18;;;1.80;;
26622;SDS011;14254;50.968;5.366;2022-08-03T06:53:55;8.20;;;2.38;;
26622;SDS011;14254;50.968;5.366;2022-08-03T06:56:20;8.57;;;2.05;;
26622;SDS011;14254;50.968;5.366;2022-08-03T06:58:46;10.98;;;2.38;;
26622;SDS011;14254;50.968;5.366;2022-08-03T07:01:12;12.60;;;2.10;;
26622;SDS011;14254;50.968;5.366;2022-08-03T07:03:38;8.68;;;1.80;;
26622;SDS011;14254;50.968;5.366;2022-08-03T07:06:04;12.63;;;2.13;;
26622;SDS011;14254;50.968;5.366;2022-08-03T07:08:30;8.90;;;2.15;;
26622;SDS011;14254;50.968;5.366;2022-08-03T07:10:56;6.82;;;2.17;;
26622;SDS011;14254;50.968;5.366;2022-08-03T07:13:21;5.25;;;1.70;;
26622;SDS011;14254;50.968;5.366;2022-08-03T07:15:47;7.82;;;2.42;;
26622;SDS011;14254;50.968;5.366;2022-08-03T07:18:13;5.80;;;1.90;;
26622;SDS011;14254;50.968;5.366;2022-08-03T07:20:39;6.75;;;2.15;;
26622;SDS011;14254;50.968;5.366;2022-08-03T07:23:05;5.43;;;2.13;;
26622;SDS011;14254;50.968;5.366;2022-08-03T07:25:30;6.93;;;2.38;;
26622;SDS011;14254;50.968;5.366;2022-08-03T07:27:56;7.13;;;2.17;;
26622;SDS011;14254;50.968;5.366;2022-08-03T07:30:22;7.13;;;2.35;;
26622;SDS011;14254;50.968;5.366;2022-08-03T07:32:47;6.18;;;2.42;;
26622;SDS011;14254;50.968;5.366;2022-08-03T07:35:13;8.52;;;2.33;;
26622;SDS011;14254;50.968;5.366;2022-08-03T07:37:39;7.13;;;2.30;;
26622;SDS011;14254;50.968;5.366;2022-08-03T07:40:05;7.45;;;2.13;;
26622;SDS011;14254;50.968;5.366;2022-08-03T07:42:31;7.70;;;1.90;;
26622;SDS011;14254;50.968;5.366;2022-08-03T07:44:57;7.95;;;1.95;;
26622;SDS011;14254;50.968;5.366;2022-08-03T07:47:24;6.85;;;2.08;;
26622;SDS011;14254;50.968;5.366;2022-08-03T07:49:52;8.95;;;2.53;;
26622;SDS011;14254;50.968;5.366;2022-08-03T07:52:18;4.00;;;1.52;;
26622;SDS011;14254;50.968;5.366;2022-08-03T07:55:03;4.03;;;1.70;;
26622;SDS011;14254;50.968;5.366;2022-08-03T07:57:30;7.72;;;1.35;;
26622;SDS011;14254;50.968;5.366;2022-08-03T07:59:56;6.25;;;1.65;;
26622;SDS011;14254;50.968;5.366;2022-08-03T08:02:22;7.35;;;2.35;;
26622;SDS011;14254;50.968;5.366;2022-08-03T08:04:48;5.47;;;1.10;;
26622;SDS011;14254;50.968;5.366;2022-08-03T08:07:13;5.30;;;1.98;;
26622;SDS011;14254;50.968;5.366;2022-08-03T08:09:39;4.20;;;1.40;;
26622;SDS011;14254;50.968;5.366;2022-08-03T08:12:05;3.42;;;1.25;;
26622;SDS011;14254;50.968;5.366;2022-08-03T08:14:32;7.80;;;1.30;;
26622;SDS011;14254;50.968;5.366;2022-08-03T08:16:58;2.85;;;1.00;;
26622;SDS011;14254;50.968;5.366;2022-08-03T08:19:24;4.20;;;1.20;;
26622;SDS011;14254;50.968;5.366;2022-08-03T08:21:50;2.53;;;0.95;;
26622;SDS011;14254;50.968;5.366;2022-08-03T08:24:16;4.28;;;1.33;;
26622;SDS011;14254;50.968;5.366;2022-08-03T08:26:41;6.65;;;1.80;;
26622;SDS011;14254;50.968;5.366;2022-08-03T08:29:07;3.00;;;1.33;;
26622;SDS011;14254;50.968;5.366;2022-08-03T08:31:33;7.22;;;1.10;;
26622;SDS011;14254;50.968;5.366;2022-08-03T08:33:59;8.98;;;1.25;;
26622;SDS011;14254;50.968;5.366;2022-08-03T08:36:30;4.38;;;1.30;;
26622;SDS011;14254;50.968;5.366;2022-08-03T08:38:56;6.82;;;0.93;;
26622;SDS011;14254;50.968;5.366;2022-08-03T08:41:22;3.30;;;1.10;;
26622;SDS011;14254;50.968;5.366;2022-08-03T08:43:48;2.65;;;1.27;;
26622;SDS011;14254;50.968;5.366;2022-08-03T08:46:14;13.88;;;1.40;;
26622;SDS011;14254;50.968;5.366;2022-08-03T08:48:40;5.22;;;1.48;;
26622;SDS011;14254;50.968;5.366;2022-08-03T08:51:08;7.53;;;1.15;;
26622;SDS011;14254;50.968;5.366;2022-08-03T08:53:36;7.60;;;1.60;;
26622;SDS011;14254;50.968;5.366;2022-08-03T08:56:04;9.32;;;1.17;;
26622;SDS011;14254;50.968;5.366;2022-08-03T08:58:36;5.88;;;1.40;;
26622;SDS011;14254;50.968;5.366;2022-08-03T09:03:34;6.43;;;1.80;;
26622;SDS011;14254;50.968;5.366;2022-08-03T09:06:00;5.97;;;1.60;;
26622;SDS011;14254;50.968;5.366;2022-08-03T09:08:27;5.65;;;1.40;;
26622;SDS011;14254;50.968;5.366;2022-08-03T09:10:53;6.88;;;1.35;;
26622;SDS011;14254;50.968;5.366;2022-08-03T09:13:19;5.10;;;1.63;;
26622;SDS011;14254;50.968;5.366;2022-08-03T09:15:45;3.35;;;1.20;;
26622;SDS011;14254;50.968;5.366;2022-08-03T09:18:11;9.05;;;2.17;;
26622;SDS011;14254;50.968;5.366;2022-08-03T09:20:38;2.45;;;1.70;;
26622;SDS011;14254;50.968;5.366;2022-08-03T09:25:36;6.70;;;1.75;;
26622;SDS011;14254;50.968;5.366;2022-08-03T09:30:43;8.95;;;1.58;;
26622;SDS011;14254;50.968;5.366;2022-08-03T09:33:21;8.02;;;1.67;;
26622;SDS011;14254;50.968;5.366;2022-08-03T09:35:48;7.35;;;1.38;;
26622;SDS011;14254;50.968;5.366;2022-08-03T09:38:31;7.45;;;1.55;;
26622;SDS011;14254;50.968;5.366;2022-08-03T09:40:57;5.57;;;1.27;;
26622;SDS011;14254;50.968;5.366;2022-08-03T09:43:23;2.67;;;1.35;;
26622;SDS011;14254;50.968;5.366;2022-08-03T09:45:51;7.45;;;1.23;;
26622;SDS011;14254;50.968;5.366;2022-08-03T09:48:31;4.50;;;1.60;;
26622;SDS011;14254;50.968;5.366;2022-08-03T09:51:02;6.63;;;1.40;;
26622;SDS011;14254;50.968;5.366;2022-08-03T09:53:28;6.97;;;1.40;;
26622;SDS011;14254;50.968;5.366;2022-08-03T09:58:27;5.57;;;1.52;;
26622;SDS011;14254;50.968;5.366;2022-08-03T10:03:24;5.38;;;1.50;;
26622;SDS011;14254;50.968;5.366;2022-08-03T10:05:52;2.03;;;0.90;;
26622;SDS011;14254;50.968;5.366;2022-08-03T10:08:18;4.72;;;0.80;;
26622;SDS011;14254;50.968;5.366;2022-08-03T10:10:45;3.05;;;0.90;;
26622;SDS011;14254;50.968;5.366;2022-08-03T10:13:12;5.88;;;1.33;;
26622;SDS011;14254;50.968;5.366;2022-08-03T10:15:39;5.32;;;1.10;;
26622;SDS011;14254;50.968;5.366;2022-08-03T10:18:05;3.97;;;1.10;;
26622;SDS011;14254;50.968;5.366;2022-08-03T10:20:32;5.32;;;1.20;;
26622;SDS011;14254;50.968;5.366;2022-08-03T10:23:02;1.10;;;0.90;;
26622;SDS011;14254;50.968;5.366;2022-08-03T10:25:29;3.13;;;1.00;;
26622;SDS011;14254;50.968;5.366;2022-08-03T10:27:56;7.85;;;1.20;;
26622;SDS011;14254;50.968;5.366;2022-08-03T10:30:24;2.17;;;0.90;;
26622;SDS011;14254;50.968;5.366;2022-08-03T10:32:57;3.15;;;0.90;;
26622;SDS011;14254;50.968;5.366;2022-08-03T10:35:32;4.65;;;0.80;;
26622;SDS011;14254;50.968;5.366;2022-08-03T10:38:02;10.43;;;1.35;;
26622;SDS011;14254;50.968;5.366;2022-08-03T10:40:32;5.88;;;1.23;;
26622;SDS011;14254;50.968;5.366;2022-08-03T10:43:02;1.30;;;0.90;;
26622;SDS011;14254;50.968;5.366;2022-08-03T10:45:34;5.93;;;1.10;;
26622;SDS011;14254;50.968;5.366;2022-08-03T10:48:04;3.97;;;1.40;;
26622;SDS011;14254;50.968;5.366;2022-08-03T10:50:30;4.03;;;0.90;;
26622;SDS011;14254;50.968;5.366;2022-08-03T10:53:00;2.47;;;0.70;;
26622;SDS011;14254;50.968;5.366;2022-08-03T10:58:14;4.60;;;1.05;;
26622;SDS011;14254;50.968;5.366;2022-08-03T11:01:00;2.55;;;0.88;;
26622;SDS011;14254;50.968;5.366;2022-08-03T11:03:26;6.10;;;0.90;;
26622;SDS011;14254;50.968;5.366;2022-08-03T11:05:51;2.42;;;1.02;;
26622;SDS011;14254;50.968;5.366;2022-08-03T11:10:49;4.72;;;1.02;;
26622;SDS011;14254;50.968;5.366;2022-08-03T11:13:18;3.33;;;1.13;;
26622;SDS011;14254;50.968;5.366;2022-08-03T11:15:46;2.90;;;1.08;;
26622;SDS011;14254;50.968;5.366;2022-08-03T11:18:13;1.02;;;0.82;;
26622;SDS011;14254;50.968;5.366;2022-08-03T11:20:53;1.25;;;0.93;;
26622;SDS011;14254;50.968;5.366;2022-08-03T11:23:42;2.97;;;1.20;;
26622;SDS011;14254;50.968;5.366;2022-08-03T11:26:10;3.25;;;0.93;;
26622;SDS011;14254;50.968;5.366;2022-08-03T11:28:37;3.55;;;1.05;;
26622;SDS011;14254;50.968;5.366;2022-08-03T11:31:46;3.25;;;1.10;;
26622;SDS011;14254;50.968;5.366;2022-08-03T11:34:08;1.83;;;0.95;;
26622;SDS011;14254;50.968;5.366;2022-08-03T11:44:49;3.63;;;0.95;;
26622;SDS011;14254;50.968;5.366;2022-08-03T11:47:15;4.85;;;0.90;;
26622;SDS011;14254;50.968;5.366;2022-08-03T11:49:43;10.63;;;1.65;;
26622;SDS011;14254;50.968;5.366;2022-08-03T11:52:13;4.93;;;1.30;;
26622;SDS011;14254;50.968;5.366;2022-08-03T11:54:41;2.40;;;1.08;;
26622;SDS011;14254;50.968;5.366;2022-08-03T11:57:07;2.45;;;1.10;;
26622;SDS011;14254;50.968;5.366;2022-08-03T11:59:33;3.33;;;1.30;;
26622;SDS011;14254;50.968;5.366;2022-08-03T12:02:06;2.92;;;0.93;;
26622;SDS011;14254;50.968;5.366;2022-08-03T12:04:53;3.45;;;1.27;;
26622;SDS011;14254;50.968;5.366;2022-08-03T12:07:22;5.10;;;1.38;;
26622;SDS011;14254;50.968;5.366;2022-08-03T12:12:33;3.28;;;1.23;;
26622;SDS011;14254;50.968;5.366;2022-08-03T12:14:58;5.65;;;1.35;;
26622;SDS011;14254;50.968;5.366;2022-08-03T12:17:34;4.70;;;1.33;;
26622;SDS011;14254;50.968;5.366;2022-08-03T12:20:05;3.03;;;1.27;;
26622;SDS011;14254;50.968;5.366;2022-08-03T12:24:59;3.00;;;1.10;;
26622;SDS011;14254;50.968;5.366;2022-08-03T12:27:25;6.40;;;1.15;;
26622;SDS011;14254;50.968;5.366;2022-08-03T12:29:55;2.05;;;0.82;;
26622;SDS011;14254;50.968;5.366;2022-08-03T12:32:22;2.38;;;1.23;;
26622;SDS011;14254;50.968;5.366;2022-08-03T12:34:50;6.18;;;1.30;;
26622;SDS011;14254;50.968;5.366;2022-08-03T12:37:19;7.22;;;1.17;;
26622;SDS011;14254;50.968;5.366;2022-08-03T12:39:53;4.38;;;1.52;;
26622;SDS011;14254;50.968;5.366;2022-08-03T12:42:20;5.75;;;1.30;;
26622;SDS011;14254;50.968;5.366;2022-08-03T12:44:47;1.63;;;1.08;;
26622;SDS011;14254;50.968;5.366;2022-08-03T12:47:15;3.70;;;1.08;;
26622;SDS011;14254;50.968;5.366;2022-08-03T12:49:44;6.05;;;0.90;;
26622;SDS011;14254;50.968;5.366;2022-08-03T12:52:10;6.72;;;1.17;;
26622;SDS011;14254;50.968;5.366;2022-08-03T12:54:36;2.63;;;1.08;;
26622;SDS011;14254;50.968;5.366;2022-08-03T12:57:06;1.38;;;0.90;;
26622;SDS011;14254;50.968;5.366;2022-08-03T12:59:44;3.65;;;1.20;;
26622;SDS011;14254;50.968;5.366;2022-08-03T13:02:22;3.30;;;1.27;;
26622;SDS011;14254;50.968;5.366;2022-08-03T13:04:49;2.50;;;1.33;;
26622;SDS011;14254;50.968;5.366;2022-08-03T13:07:17;4.15;;;1.00;;
26622;SDS011;14254;50.968;5.366;2022-08-03T13:09:44;2.47;;;0.90;;
26622;SDS011;14254;50.968;5.366;2022-08-03T13:12:15;4.13;;;1.00;;
26622;SDS011;14254;50.968;5.366;2022-08-03T13:14:45;2.53;;;1.17;;
26622;SDS011;14254;50.968;5.366;2022-08-03T13:17:12;4.03;;;1.25;;
26622;SDS011;14254;50.968;5.366;2022-08-03T13:19:40;3.55;;;1.00;;
26622;SDS011;14254;50.968;5.366;2022-08-03T13:22:25;3.47;;;1.25;;
26622;SDS011;14254;50.968;5.366;2022-08-03T13:24:53;1.95;;;1.00;;
26622;SDS011;14254;50.968;5.366;2022-08-03T13:27:24;1.95;;;1.00;;
26622;SDS011;14254;50.968;5.366;2022-08-03T13:29:50;3.92;;;1.33;;
26622;SDS011;14254;50.968;5.366;2022-08-03T13:32:17;2.47;;;0.90;;
26622;SDS011;14254;50.968;5.366;2022-08-03T13:34:43;4.43;;;1.33;;
26622;SDS011;14254;50.968;5.366;2022-08-03T13:37:09;3.05;;;1.10;;
26622;SDS011;14254;50.968;5.366;2022-08-03T13:39:36;1.83;;;1.10;;
26622;SDS011;14254;50.968;5.366;2022-08-03T13:42:05;2.03;;;0.80;;
26622;SDS011;14254;50.968;5.366;2022-08-03T13:44:31;6.15;;;1.63;;
26622;SDS011;14254;50.968;5.366;2022-08-03T13:46:57;3.05;;;1.30;;
26622;SDS011;14254;50.968;5.366;2022-08-03T13:49:24;3.05;;;1.00;;
26622;SDS011;14254;50.968;5.366;2022-08-03T13:51:54;5.03;;;1.20;;
26622;SDS011;14254;50.968;5.366;2022-08-03T13:54:20;4.47;;;1.52;;
26622;SDS011;14254;50.968;5.366;2022-08-03T13:56:45;1.85;;;1.08;;
26622;SDS011;14254;50.968;5.366;2022-08-03T13:59:20;5.50;;;1.08;;
26622;SDS011;14254;50.968;5.366;2022-08-03T14:01:47;5.90;;;1.20;;
26622;SDS011;14254;50.968;5.366;2022-08-03T14:04:13;2.53;;;1.10;;
26622;SDS011;14254;50.968;5.366;2022-08-03T14:06:39;1.77;;;0.85;;
26622;SDS011;14254;50.968;5.366;2022-08-03T14:09:05;2.97;;;1.00;;
26622;SDS011;14254;50.968;5.366;2022-08-03T14:11:30;3.55;;;0.73;;
26622;SDS011;14254;50.968;5.366;2022-08-03T14:13:56;5.63;;;0.90;;
26622;SDS011;14254;50.968;5.366;2022-08-03T14:16:22;3.72;;;0.95;;
26622;SDS011;14254;50.968;5.366;2022-08-03T14:18:48;1.35;;;1.08;;
26622;SDS011;14254;50.968;5.366;2022-08-03T14:21:13;1.42;;;0.93;;
26622;SDS011;14254;50.968;5.366;2022-08-03T14:23:39;2.92;;;1.45;;
26622;SDS011;14254;50.968;5.366;2022-08-03T14:26:05;2.45;;;0.75;;
26622;SDS011;14254;50.968;5.366;2022-08-03T14:28:31;5.45;;;0.90;;
26622;SDS011;14254;50.968;5.366;2022-08-03T14:30:57;3.92;;;1.15;;
26622;SDS011;14254;50.968;5.366;2022-08-03T14:33:23;2.97;;;0.95;;
26622;SDS011;14254;50.968;5.366;2022-08-03T14:35:49;4.63;;;1.15;;
26622;SDS011;14254;50.968;5.366;2022-08-03T14:38:16;1.92;;;0.77;;
26622;SDS011;14254;50.968;5.366;2022-08-03T14:40:42;5.10;;;1.23;;
26622;SDS011;14254;50.968;5.366;2022-08-03T14:43:08;3.25;;;1.10;;
26622;SDS011;14254;50.968;5.366;2022-08-03T14:45:34;6.47;;;1.08;;
26622;SDS011;14254;50.968;5.366;2022-08-03T14:48:00;2.28;;;0.90;;
26622;SDS011;14254;50.968;5.366;2022-08-03T14:50:26;3.45;;;1.15;;
26622;SDS011;14254;50.968;5.366;2022-08-03T14:52:55;3.67;;;1.20;;
26622;SDS011;14254;50.968;5.366;2022-08-03T14:55:21;3.50;;;1.10;;
26622;SDS011;14254;50.968;5.366;2022-08-03T14:57:47;6.97;;;1.08;;
26622;SDS011;14254;50.968;5.366;2022-08-03T15:00:13;1.95;;;0.60;;
26622;SDS011;14254;50.968;5.366;2022-08-03T15:02:39;6.40;;;1.02;;
26622;SDS011;14254;50.968;5.366;2022-08-03T15:05:05;5.93;;;0.80;;
26622;SDS011;14254;50.968;5.366;2022-08-03T15:07:31;3.22;;;1.08;;
26622;SDS011;14254;50.968;5.366;2022-08-03T15:09:56;3.08;;;0.82;;
26622;SDS011;14254;50.968;5.366;2022-08-03T15:12:23;5.22;;;1.10;;
26622;SDS011;14254;50.968;5.366;2022-08-03T15:14:49;1.08;;;0.68;;
26622;SDS011;14254;50.968;5.366;2022-08-03T15:17:15;2.92;;;0.90;;
26622;SDS011;14254;50.968;5.366;2022-08-03T15:19:42;3.40;;;1.10;;
26622;SDS011;14254;50.968;5.366;2022-08-03T15:22:07;4.43;;;1.05;;
26622;SDS011;14254;50.968;5.366;2022-08-03T15:24:33;3.72;;;0.80;;
26622;SDS011;14254;50.968;5.366;2022-08-03T15:26:59;3.50;;;0.82;;
26622;SDS011;14254;50.968;5.366;2022-08-03T15:29:24;3.83;;;1.15;;
26622;SDS011;14254;50.968;5.366;2022-08-03T15:31:50;2.88;;;0.80;;
26622;SDS011;14254;50.968;5.366;2022-08-03T15:34:16;5.45;;;0.85;;